sensor_id;sensor_type;location;lat;lon;timestamp;temperature;humidity
18948;DHT22;9607;51.600;7.558;2023-08-17T00:00:36;17.30;99.90
18948;DHT22;9607;51.600;7.558;2023-08-17T00:03:04;17.30;99.90
18948;DHT22;9607;51.600;7.558;2023-08-17T00:05:31;17.30;99.90
18948;DHT22;9607;51.600;7.558;2023-08-17T00:07:59;17.20;99.90
18948;DHT22;9607;51.600;7.558;2023-08-17T00:10:26;17.10;99.90
18948;DHT22;9607;51.600;7.558;2023-08-17T00:12:53;17.00;99.90
18948;DHT22;9607;51.600;7.558;2023-08-17T00:15:20;16.90;99.90
18948;DHT22;9607;51.600;7.558;2023-08-17T00:17:47;16.90;99.90
18948;DHT22;9607;51.600;7.558;2023-08-17T00:20:16;16.80;99.90
18948;DHT22;9607;51.600;7.558;2023-08-17T00:22:43;16.80;99.90
18948;DHT22;9607;51.600;7.558;2023-08-17T00:25:10;16.70;99.90
18948;DHT22;9607;51.600;7.558;2023-08-17T00:27:37;16.70;99.90
18948;DHT22;9607;51.600;7.558;2023-08-17T00:30:04;16.70;99.90
18948;DHT22;9607;51.600;7.558;2023-08-17T00:32:31;16.80;99.90
18948;DHT22;9607;51.600;7.558;2023-08-17T00:34:58;16.80;99.90
18948;DHT22;9607;51.600;7.558;2023-08-17T00:37:26;16.80;99.90
18948;DHT22;9607;51.600;7.558;2023-08-17T00:39:53;16.80;99.90
18948;DHT22;9607;51.600;7.558;2023-08-17T00:42:20;16.80;99.90
18948;DHT22;9607;51.600;7.558;2023-08-17T00:44:46;16.90;99.90
18948;DHT22;9607;51.600;7.558;2023-08-17T00:47:13;16.90;99.90
18948;DHT22;9607;51.600;7.558;2023-08-17T00:49:41;16.90;99.90
18948;DHT22;9607;51.600;7.558;2023-08-17T00:52:08;16.90;99.90
18948;DHT22;9607;51.600;7.558;2023-08-17T00:54:37;16.90;99.90
18948;DHT22;9607;51.600;7.558;2023-08-17T00:57:04;16.90;99.90
18948;DHT22;9607;51.600;7.558;2023-08-17T00:59:32;16.90;99.90
18948;DHT22;9607;51.600;7.558;2023-08-17T01:01:59;16.90;99.90
18948;DHT22;9607;51.600;7.558;2023-08-17T01:04:25;16.90;99.90
18948;DHT22;9607;51.600;7.558;2023-08-17T01:06:52;16.90;99.90
18948;DHT22;9607;51.600;7.558;2023-08-17T01:09:19;16.90;99.90
18948;DHT22;9607;51.600;7.558;2023-08-17T01:11:53;16.90;99.90
18948;DHT22;9607;51.600;7.558;2023-08-17T01:14:32;16.90;99.90
18948;DHT22;9607;51.600;7.558;2023-08-17T01:17:06;16.90;99.90
18948;DHT22;9607;51.600;7.558;2023-08-17T01:19:38;16.90;99.90
18948;DHT22;9607;51.600;7.558;2023-08-17T01:22:08;16.90;99.90
18948;DHT22;9607;51.600;7.558;2023-08-17T01:24:38;16.90;99.90
18948;DHT22;9607;51.600;7.558;2023-08-17T01:27:05;16.90;99.90
18948;DHT22;9607;51.600;7.558;2023-08-17T01:29:32;16.80;99.90
18948;DHT22;9607;51.600;7.558;2023-08-17T01:32:15;16.80;99.90
18948;DHT22;9607;51.600;7.558;2023-08-17T01:34:48;16.80;99.90
18948;DHT22;9607;51.600;7.558;2023-08-17T01:37:18;16.80;99.90
18948;DHT22;9607;51.600;7.558;2023-08-17T01:39:50;16.80;99.90
18948;DHT22;9607;51.600;7.558;2023-08-17T01:42:19;16.80;99.90
18948;DHT22;9607;51.600;7.558;2023-08-17T01:44:46;16.80;99.90
18948;DHT22;9607;51.600;7.558;2023-08-17T01:47:13;16.80;99.90
18948;DHT22;9607;51.600;7.558;2023-08-17T01:49:40;16.70;99.90
18948;DHT22;9607;51.600;7.558;2023-08-17T01:52:07;16.70;99.90
18948;DHT22;9607;51.600;7.558;2023-08-17T01:54:34;16.70;99.90
18948;DHT22;9607;51.600;7.558;2023-08-17T01:57:02;16.70;99.90
18948;DHT22;9607;51.600;7.558;2023-08-17T01:59:29;16.70;99.90
18948;DHT22;9607;51.600;7.558;2023-08-17T02:01:56;16.70;99.90
18948;DHT22;9607;51.600;7.558;2023-08-17T02:04:23;16.60;99.90
18948;DHT22;9607;51.600;7.558;2023-08-17T02:06:49;16.60;99.90
18948;DHT22;9607;51.600;7.558;2023-08-17T02:09:16;16.60;99.90
18948;DHT22;9607;51.600;7.558;2023-08-17T02:11:43;16.60;99.90
18948;DHT22;9607;51.600;7.558;2023-08-17T02:14:11;16.60;99.90
18948;DHT22;9607;51.600;7.558;2023-08-17T02:16:38;16.60;99.90
18948;DHT22;9607;51.600;7.558;2023-08-17T02:19:05;16.60;99.90
18948;DHT22;9607;51.600;7.558;2023-08-17T02:21:32;16.50;99.90
18948;DHT22;9607;51.600;7.558;2023-08-17T02:23:58;16.50;99.90
18948;DHT22;9607;51.600;7.558;2023-08-17T02:26:25;16.50;99.90
18948;DHT22;9607;51.600;7.558;2023-08-17T02:28:52;16.50;99.90
18948;DHT22;9607;51.600;7.558;2023-08-17T02:31:20;16.50;99.90
18948;DHT22;9607;51.600;7.558;2023-08-17T02:33:47;16.50;99.90
18948;DHT22;9607;51.600;7.558;2023-08-17T02:36:14;16.50;99.90
18948;DHT22;9607;51.600;7.558;2023-08-17T02:38:41;16.50;99.90
18948;DHT22;9607;51.600;7.558;2023-08-17T02:41:08;16.50;99.90
18948;DHT22;9607;51.600;7.558;2023-08-17T02:43:34;16.60;99.90
18948;DHT22;9607;51.600;7.558;2023-08-17T02:46:21;16.50;99.90
18948;DHT22;9607;51.600;7.558;2023-08-17T02:48:48;16.60;99.90
18948;DHT22;9607;51.600;7.558;2023-08-17T02:51:15;16.60;99.90
18948;DHT22;9607;51.600;7.558;2023-08-17T02:53:42;16.60;99.90
18948;DHT22;9607;51.600;7.558;2023-08-17T02:56:09;16.60;99.90
18948;DHT22;9607;51.600;7.558;2023-08-17T02:58:37;16.60;99.90
18948;DHT22;9607;51.600;7.558;2023-08-17T03:01:06;16.50;99.90
18948;DHT22;9607;51.600;7.558;2023-08-17T03:03:34;16.60;99.90
18948;DHT22;9607;51.600;7.558;2023-08-17T03:06:01;16.60;99.90
18948;DHT22;9607;51.600;7.558;2023-08-17T03:08:28;16.60;99.90
18948;DHT22;9607;51.600;7.558;2023-08-17T03:10:55;16.60;99.90
18948;DHT22;9607;51.600;7.558;2023-08-17T03:13:22;16.60;99.90
18948;DHT22;9607;51.600;7.558;2023-08-17T03:15:49;16.60;99.90
18948;DHT22;9607;51.600;7.558;2023-08-17T03:18:15;16.50;99.90
18948;DHT22;9607;51.600;7.558;2023-08-17T03:20:45;16.60;99.90
18948;DHT22;9607;51.600;7.558;2023-08-17T03:23:12;16.50;99.90
18948;DHT22;9607;51.600;7.558;2023-08-17T03:25:39;16.50;99.90
18948;DHT22;9607;51.600;7.558;2023-08-17T03:28:06;16.60;99.90
18948;DHT22;9607;51.600;7.558;2023-08-17T03:30:33;16.60;99.90
18948;DHT22;9607;51.600;7.558;2023-08-17T03:33:00;16.60;99.90
18948;DHT22;9607;51.600;7.558;2023-08-17T03:35:27;16.60;99.90
18948;DHT22;9607;51.600;7.558;2023-08-17T03:37:55;16.60;99.90
18948;DHT22;9607;51.600;7.558;2023-08-17T03:40:21;16.60;99.90
18948;DHT22;9607;51.600;7.558;2023-08-17T03:42:48;16.60;99.90
18948;DHT22;9607;51.600;7.558;2023-08-17T03:45:15;16.60;99.90
18948;DHT22;9607;51.600;7.558;2023-08-17T03:47:42;16.50;99.90
18948;DHT22;9607;51.600;7.558;2023-08-17T03:50:10;16.50;99.90
18948;DHT22;9607;51.600;7.558;2023-08-17T03:52:36;16.50;99.90
18948;DHT22;9607;51.600;7.558;2023-08-17T03:55:05;16.50;99.90
18948;DHT22;9607;51.600;7.558;2023-08-17T03:57:33;16.50;99.90
18948;DHT22;9607;51.600;7.558;2023-08-17T03:59:59;16.50;99.90
18948;DHT22;9607;51.600;7.558;2023-08-17T04:02:26;16.50;99.90
18948;DHT22;9607;51.600;7.558;2023-08-17T04:04:53;16.50;99.90
18948;DHT22;9607;51.600;7.558;2023-08-17T04:07:23;16.60;99.90
18948;DHT22;9607;51.600;7.558;2023-08-17T04:09:50;16.60;99.90
18948;DHT22;9607;51.600;7.558;2023-08-17T04:12:18;16.60;99.90
18948;DHT22;9607;51.600;7.558;2023-08-17T04:14:45;16.50;99.90
18948;DHT22;9607;51.600;7.558;2023-08-17T04:17:12;16.60;99.90
18948;DHT22;9607;51.600;7.558;2023-08-17T04:19:38;16.60;99.90
18948;DHT22;9607;51.600;7.558;2023-08-17T04:22:05;16.60;99.90
18948;DHT22;9607;51.600;7.558;2023-08-17T04:24:32;16.60;99.90
18948;DHT22;9607;51.600;7.558;2023-08-17T04:26:59;16.60;99.90
18948;DHT22;9607;51.600;7.558;2023-08-17T04:29:27;16.60;99.90
18948;DHT22;9607;51.600;7.558;2023-08-17T04:31:54;16.70;99.90
18948;DHT22;9607;51.600;7.558;2023-08-17T04:34:21;16.70;99.90
18948;DHT22;9607;51.600;7.558;2023-08-17T04:36:47;16.70;99.90
18948;DHT22;9607;51.600;7.558;2023-08-17T04:39:14;16.70;99.90
18948;DHT22;9607;51.600;7.558;2023-08-17T04:41:41;16.70;99.90
18948;DHT22;9607;51.600;7.558;2023-08-17T04:44:08;16.70;99.90
18948;DHT22;9607;51.600;7.558;2023-08-17T04:46:36;16.70;99.90
18948;DHT22;9607;51.600;7.558;2023-08-17T04:49:03;16.70;99.90
18948;DHT22;9607;51.600;7.558;2023-08-17T04:51:30;16.70;99.90
18948;DHT22;9607;51.600;7.558;2023-08-17T04:53:57;16.70;99.90
18948;DHT22;9607;51.600;7.558;2023-08-17T04:56:24;16.70;99.90
18948;DHT22;9607;51.600;7.558;2023-08-17T04:58:51;16.70;99.90
18948;DHT22;9607;51.600;7.558;2023-08-17T05:01:18;16.70;99.90
18948;DHT22;9607;51.600;7.558;2023-08-17T05:03:46;16.70;99.90
18948;DHT22;9607;51.600;7.558;2023-08-17T05:06:13;16.70;99.90
18948;DHT22;9607;51.600;7.558;2023-08-17T05:08:39;16.70;99.90
18948;DHT22;9607;51.600;7.558;2023-08-17T05:11:06;16.80;99.90
18948;DHT22;9607;51.600;7.558;2023-08-17T05:13:34;16.80;99.90
18948;DHT22;9607;51.600;7.558;2023-08-17T05:16:00;16.80;99.90
18948;DHT22;9607;51.600;7.558;2023-08-17T05:18:27;16.80;99.90
18948;DHT22;9607;51.600;7.558;2023-08-17T05:20:55;16.80;99.90
18948;DHT22;9607;51.600;7.558;2023-08-17T05:23:22;16.80;99.90
18948;DHT22;9607;51.600;7.558;2023-08-17T05:25:49;16.80;99.90
18948;DHT22;9607;51.600;7.558;2023-08-17T05:28:16;16.80;99.90
18948;DHT22;9607;51.600;7.558;2023-08-17T05:30:43;16.90;99.90
18948;DHT22;9607;51.600;7.558;2023-08-17T05:33:10;16.90;99.90
18948;DHT22;9607;51.600;7.558;2023-08-17T05:35:37;16.90;99.90
18948;DHT22;9607;51.600;7.558;2023-08-17T05:38:05;17.00;99.90
18948;DHT22;9607;51.600;7.558;2023-08-17T05:40:32;17.00;99.90
18948;DHT22;9607;51.600;7.558;2023-08-17T05:42:59;17.10;99.90
18948;DHT22;9607;51.600;7.558;2023-08-17T05:45:26;17.10;99.90
18948;DHT22;9607;51.600;7.558;2023-08-17T05:47:52;17.20;99.90
18948;DHT22;9607;51.600;7.558;2023-08-17T05:50:19;17.30;99.90
18948;DHT22;9607;51.600;7.558;2023-08-17T05:52:46;17.30;99.90
18948;DHT22;9607;51.600;7.558;2023-08-17T05:55:14;17.30;99.90
18948;DHT22;9607;51.600;7.558;2023-08-17T05:57:41;17.30;99.90
18948;DHT22;9607;51.600;7.558;2023-08-17T06:00:09;17.30;99.90
18948;DHT22;9607;51.600;7.558;2023-08-17T06:02:37;17.40;99.90
18948;DHT22;9607;51.600;7.558;2023-08-17T06:05:05;17.40;99.90
18948;DHT22;9607;51.600;7.558;2023-08-17T06:07:33;17.40;99.90
18948;DHT22;9607;51.600;7.558;2023-08-17T06:12:30;17.40;99.90
18948;DHT22;9607;51.600;7.558;2023-08-17T06:14:57;17.40;99.90
18948;DHT22;9607;51.600;7.558;2023-08-17T06:17:23;17.40;99.90
18948;DHT22;9607;51.600;7.558;2023-08-17T06:19:50;17.40;99.90
18948;DHT22;9607;51.600;7.558;2023-08-17T06:22:17;17.50;99.90
18948;DHT22;9607;51.600;7.558;2023-08-17T06:24:44;17.50;99.90
18948;DHT22;9607;51.600;7.558;2023-08-17T06:27:14;17.50;99.90
18948;DHT22;9607;51.600;7.558;2023-08-17T06:29:42;17.50;99.90
18948;DHT22;9607;51.600;7.558;2023-08-17T06:32:09;17.50;99.90
18948;DHT22;9607;51.600;7.558;2023-08-17T06:34:36;17.50;99.90
18948;DHT22;9607;51.600;7.558;2023-08-17T06:37:03;17.60;99.90
18948;DHT22;9607;51.600;7.558;2023-08-17T06:39:30;17.60;99.90
18948;DHT22;9607;51.600;7.558;2023-08-17T06:41:58;17.70;99.90
18948;DHT22;9607;51.600;7.558;2023-08-17T06:44:24;17.70;99.90
18948;DHT22;9607;51.600;7.558;2023-08-17T06:46:53;17.70;99.90
18948;DHT22;9607;51.600;7.558;2023-08-17T06:49:19;17.80;99.90
18948;DHT22;9607;51.600;7.558;2023-08-17T06:51:46;17.80;99.90
18948;DHT22;9607;51.600;7.558;2023-08-17T06:54:13;17.80;99.90
18948;DHT22;9607;51.600;7.558;2023-08-17T06:56:40;17.90;99.90
18948;DHT22;9607;51.600;7.558;2023-08-17T06:59:07;17.90;99.90
18948;DHT22;9607;51.600;7.558;2023-08-17T07:01:33;18.00;99.90
18948;DHT22;9607;51.600;7.558;2023-08-17T07:04:02;18.00;99.90
18948;DHT22;9607;51.600;7.558;2023-08-17T07:06:29;18.00;99.90
18948;DHT22;9607;51.600;7.558;2023-08-17T07:08:56;18.00;99.90
18948;DHT22;9607;51.600;7.558;2023-08-17T07:11:23;18.00;99.90
18948;DHT22;9607;51.600;7.558;2023-08-17T07:13:50;18.00;99.90
18948;DHT22;9607;51.600;7.558;2023-08-17T07:16:16;18.10;99.90
18948;DHT22;9607;51.600;7.558;2023-08-17T07:18:43;18.10;99.90
18948;DHT22;9607;51.600;7.558;2023-08-17T07:21:12;18.20;99.90
18948;DHT22;9607;51.600;7.558;2023-08-17T07:23:39;18.30;99.90
18948;DHT22;9607;51.600;7.558;2023-08-17T07:26:05;18.40;99.90
18948;DHT22;9607;51.600;7.558;2023-08-17T07:28:32;18.60;99.90
18948;DHT22;9607;51.600;7.558;2023-08-17T07:30:59;18.70;99.90
18948;DHT22;9607;51.600;7.558;2023-08-17T07:33:26;18.80;99.90
18948;DHT22;9607;51.600;7.558;2023-08-17T07:35:52;18.90;99.90
18948;DHT22;9607;51.600;7.558;2023-08-17T07:38:22;19.00;99.90
18948;DHT22;9607;51.600;7.558;2023-08-17T07:40:49;19.10;99.90
18948;DHT22;9607;51.600;7.558;2023-08-17T07:43:16;19.10;99.90
18948;DHT22;9607;51.600;7.558;2023-08-17T07:45:43;19.10;99.90
18948;DHT22;9607;51.600;7.558;2023-08-17T07:48:10;19.20;99.90
18948;DHT22;9607;51.600;7.558;2023-08-17T07:50:36;19.20;99.90
18948;DHT22;9607;51.600;7.558;2023-08-17T07:53:03;19.40;99.90
18948;DHT22;9607;51.600;7.558;2023-08-17T07:55:31;19.50;99.90
18948;DHT22;9607;51.600;7.558;2023-08-17T07:57:58;19.50;99.90
18948;DHT22;9607;51.600;7.558;2023-08-17T08:00:25;19.50;99.90
18948;DHT22;9607;51.600;7.558;2023-08-17T08:02:52;19.60;99.90
18948;DHT22;9607;51.600;7.558;2023-08-17T08:05:18;19.70;99.90
18948;DHT22;9607;51.600;7.558;2023-08-17T08:07:45;19.70;99.90
18948;DHT22;9607;51.600;7.558;2023-08-17T08:10:12;19.80;99.90
18948;DHT22;9607;51.600;7.558;2023-08-17T08:12:40;19.80;99.90
18948;DHT22;9607;51.600;7.558;2023-08-17T08:15:08;20.00;99.90
18948;DHT22;9607;51.600;7.558;2023-08-17T08:17:35;20.00;99.90
18948;DHT22;9607;51.600;7.558;2023-08-17T08:20:02;19.90;99.90
18948;DHT22;9607;51.600;7.558;2023-08-17T08:22:29;19.90;99.90
18948;DHT22;9607;51.600;7.558;2023-08-17T08:24:57;19.90;99.90
18948;DHT22;9607;51.600;7.558;2023-08-17T08:27:24;19.90;99.90
18948;DHT22;9607;51.600;7.558;2023-08-17T08:29:53;19.90;99.90
18948;DHT22;9607;51.600;7.558;2023-08-17T08:32:19;19.90;99.90
18948;DHT22;9607;51.600;7.558;2023-08-17T08:34:46;19.90;99.90
18948;DHT22;9607;51.600;7.558;2023-08-17T08:37:13;19.90;99.90
18948;DHT22;9607;51.600;7.558;2023-08-17T08:39:49;19.90;99.90
18948;DHT22;9607;51.600;7.558;2023-08-17T08:42:17;20.00;99.90
18948;DHT22;9607;51.600;7.558;2023-08-17T08:44:44;20.10;99.90
18948;DHT22;9607;51.600;7.558;2023-08-17T08:47:13;20.10;99.90
18948;DHT22;9607;51.600;7.558;2023-08-17T08:49:40;20.10;99.90
18948;DHT22;9607;51.600;7.558;2023-08-17T08:52:14;20.10;99.90
18948;DHT22;9607;51.600;7.558;2023-08-17T08:54:46;20.20;99.90
18948;DHT22;9607;51.600;7.558;2023-08-17T08:57:17;20.30;99.90
18948;DHT22;9607;51.600;7.558;2023-08-17T08:59:45;20.30;99.90
18948;DHT22;9607;51.600;7.558;2023-08-17T09:02:16;20.40;99.90
18948;DHT22;9607;51.600;7.558;2023-08-17T09:04:43;20.50;99.90
18948;DHT22;9607;51.600;7.558;2023-08-17T09:07:12;20.60;99.90
18948;DHT22;9607;51.600;7.558;2023-08-17T09:09:39;20.80;99.90
18948;DHT22;9607;51.600;7.558;2023-08-17T09:12:07;20.90;99.90
18948;DHT22;9607;51.600;7.558;2023-08-17T09:14:35;21.10;99.90
18948;DHT22;9607;51.600;7.558;2023-08-17T09:17:03;21.30;99.90
18948;DHT22;9607;51.600;7.558;2023-08-17T09:19:33;21.40;99.90
18948;DHT22;9607;51.600;7.558;2023-08-17T09:22:00;21.50;99.90
18948;DHT22;9607;51.600;7.558;2023-08-17T09:24:34;21.60;99.90
18948;DHT22;9607;51.600;7.558;2023-08-17T09:27:02;21.70;99.90
18948;DHT22;9607;51.600;7.558;2023-08-17T09:29:30;21.80;99.90
18948;DHT22;9607;51.600;7.558;2023-08-17T09:32:04;22.00;99.90
18948;DHT22;9607;51.600;7.558;2023-08-17T09:34:33;22.30;99.90
18948;DHT22;9607;51.600;7.558;2023-08-17T09:37:02;22.50;99.90
18948;DHT22;9607;51.600;7.558;2023-08-17T09:39:30;22.70;99.90
18948;DHT22;9607;51.600;7.558;2023-08-17T09:41:56;22.80;99.90
18948;DHT22;9607;51.600;7.558;2023-08-17T09:44:23;22.80;99.90
18948;DHT22;9607;51.600;7.558;2023-08-17T09:46:50;22.60;99.90
18948;DHT22;9607;51.600;7.558;2023-08-17T09:49:17;22.50;99.90
18948;DHT22;9607;51.600;7.558;2023-08-17T09:51:46;22.30;99.90
18948;DHT22;9607;51.600;7.558;2023-08-17T09:54:23;22.20;99.90
18948;DHT22;9607;51.600;7.558;2023-08-17T09:56:52;22.10;99.90
18948;DHT22;9607;51.600;7.558;2023-08-17T09:59:20;22.00;99.90
18948;DHT22;9607;51.600;7.558;2023-08-17T10:01:49;21.90;99.90
18948;DHT22;9607;51.600;7.558;2023-08-17T10:04:20;21.80;99.90
18948;DHT22;9607;51.600;7.558;2023-08-17T10:06:52;21.80;99.90
18948;DHT22;9607;51.600;7.558;2023-08-17T10:09:24;21.80;99.90
18948;DHT22;9607;51.600;7.558;2023-08-17T10:11:52;21.70;99.90
18948;DHT22;9607;51.600;7.558;2023-08-17T10:14:23;21.70;99.90
18948;DHT22;9607;51.600;7.558;2023-08-17T10:16:57;21.70;99.90
18948;DHT22;9607;51.600;7.558;2023-08-17T10:19:36;21.60;99.90
18948;DHT22;9607;51.600;7.558;2023-08-17T10:22:12;21.50;99.90
18948;DHT22;9607;51.600;7.558;2023-08-17T10:24:39;21.50;99.90
18948;DHT22;9607;51.600;7.558;2023-08-17T10:27:07;21.40;99.90
18948;DHT22;9607;51.600;7.558;2023-08-17T10:29:36;21.40;99.90
18948;DHT22;9607;51.600;7.558;2023-08-17T10:32:05;21.30;99.90
18948;DHT22;9607;51.600;7.558;2023-08-17T10:34:33;21.20;99.90
18948;DHT22;9607;51.600;7.558;2023-08-17T10:37:01;21.10;99.90
18948;DHT22;9607;51.600;7.558;2023-08-17T10:39:30;21.10;99.90
18948;DHT22;9607;51.600;7.558;2023-08-17T10:41:58;21.20;99.90
18948;DHT22;9607;51.600;7.558;2023-08-17T10:44:39;21.30;99.90
18948;DHT22;9607;51.600;7.558;2023-08-17T10:47:23;21.30;99.90
18948;DHT22;9607;51.600;7.558;2023-08-17T10:49:50;21.30;99.90
18948;DHT22;9607;51.600;7.558;2023-08-17T10:52:29;21.30;99.90
18948;DHT22;9607;51.600;7.558;2023-08-17T10:54:59;21.40;99.90
18948;DHT22;9607;51.600;7.558;2023-08-17T10:57:33;21.50;99.90
18948;DHT22;9607;51.600;7.558;2023-08-17T11:00:22;21.50;99.90
18948;DHT22;9607;51.600;7.558;2023-08-17T11:02:53;21.50;99.90
18948;DHT22;9607;51.600;7.558;2023-08-17T11:05:41;21.60;99.90
18948;DHT22;9607;51.600;7.558;2023-08-17T11:08:10;21.80;99.90
18948;DHT22;9607;51.600;7.558;2023-08-17T11:10:41;22.00;99.90
18948;DHT22;9607;51.600;7.558;2023-08-17T11:13:14;22.10;99.90
18948;DHT22;9607;51.600;7.558;2023-08-17T11:15:42;22.30;99.90
18948;DHT22;9607;51.600;7.558;2023-08-17T11:18:11;22.40;99.90
18948;DHT22;9607;51.600;7.558;2023-08-17T11:20:39;22.60;99.90
18948;DHT22;9607;51.600;7.558;2023-08-17T11:23:08;22.90;99.90
18948;DHT22;9607;51.600;7.558;2023-08-17T11:25:35;23.10;99.90
18948;DHT22;9607;51.600;7.558;2023-08-17T11:28:06;23.40;99.90
18948;DHT22;9607;51.600;7.558;2023-08-17T11:30:34;23.60;99.90
18948;DHT22;9607;51.600;7.558;2023-08-17T11:33:03;23.70;99.90
18948;DHT22;9607;51.600;7.558;2023-08-17T11:35:29;23.80;99.90
18948;DHT22;9607;51.600;7.558;2023-08-17T11:37:56;23.80;99.90
18948;DHT22;9607;51.600;7.558;2023-08-17T11:40:24;23.70;99.90
18948;DHT22;9607;51.600;7.558;2023-08-17T11:42:51;23.50;99.90
18948;DHT22;9607;51.600;7.558;2023-08-17T11:45:20;23.30;99.90
18948;DHT22;9607;51.600;7.558;2023-08-17T11:47:47;23.10;99.90
18948;DHT22;9607;51.600;7.558;2023-08-17T11:50:14;23.20;99.90
18948;DHT22;9607;51.600;7.558;2023-08-17T11:52:41;23.20;99.90
18948;DHT22;9607;51.600;7.558;2023-08-17T11:55:09;23.20;99.90
18948;DHT22;9607;51.600;7.558;2023-08-17T11:57:36;23.20;99.90
18948;DHT22;9607;51.600;7.558;2023-08-17T12:00:05;23.20;99.90
18948;DHT22;9607;51.600;7.558;2023-08-17T12:02:34;23.20;99.90
18948;DHT22;9607;51.600;7.558;2023-08-17T12:05:03;23.20;99.90
18948;DHT22;9607;51.600;7.558;2023-08-17T12:07:32;23.20;99.90
18948;DHT22;9607;51.600;7.558;2023-08-17T12:09:59;23.20;99.90
18948;DHT22;9607;51.600;7.558;2023-08-17T12:12:26;23.20;99.90
18948;DHT22;9607;51.600;7.558;2023-08-17T12:14:54;23.20;99.90
18948;DHT22;9607;51.600;7.558;2023-08-17T12:17:22;23.20;99.90
18948;DHT22;9607;51.600;7.558;2023-08-17T12:19:53;23.10;99.90
18948;DHT22;9607;51.600;7.558;2023-08-17T12:22:23;23.00;99.90
18948;DHT22;9607;51.600;7.558;2023-08-17T12:24:52;22.90;99.90
18948;DHT22;9607;51.600;7.558;2023-08-17T12:27:18;22.90;99.90
18948;DHT22;9607;51.600;7.558;2023-08-17T12:29:48;22.80;99.90
18948;DHT22;9607;51.600;7.558;2023-08-17T12:32:16;22.80;99.90
18948;DHT22;9607;51.600;7.558;2023-08-17T12:34:43;22.80;99.90
18948;DHT22;9607;51.600;7.558;2023-08-17T12:37:12;22.80;99.90
18948;DHT22;9607;51.600;7.558;2023-08-17T12:39:39;22.70;99.90
18948;DHT22;9607;51.600;7.558;2023-08-17T12:42:06;22.70;99.90
18948;DHT22;9607;51.600;7.558;2023-08-17T12:44:33;22.60;99.90
18948;DHT22;9607;51.600;7.558;2023-08-17T12:46:59;22.60;99.90
18948;DHT22;9607;51.600;7.558;2023-08-17T12:49:26;22.60;99.90
18948;DHT22;9607;51.600;7.558;2023-08-17T12:51:53;22.60;99.90
18948;DHT22;9607;51.600;7.558;2023-08-17T12:54:21;22.50;99.90
18948;DHT22;9607;51.600;7.558;2023-08-17T12:56:48;22.60;99.90
18948;DHT22;9607;51.600;7.558;2023-08-17T12:59:15;22.60;99.90
18948;DHT22;9607;51.600;7.558;2023-08-17T13:01:42;22.60;99.90
18948;DHT22;9607;51.600;7.558;2023-08-17T13:04:08;22.60;99.90
18948;DHT22;9607;51.600;7.558;2023-08-17T13:06:35;22.70;99.90
18948;DHT22;9607;51.600;7.558;2023-08-17T13:09:02;22.70;99.90
18948;DHT22;9607;51.600;7.558;2023-08-17T13:11:30;22.70;99.90
18948;DHT22;9607;51.600;7.558;2023-08-17T13:13:57;22.70;99.90
18948;DHT22;9607;51.600;7.558;2023-08-17T13:16:24;22.80;99.90
18948;DHT22;9607;51.600;7.558;2023-08-17T13:18:51;22.90;99.90
18948;DHT22;9607;51.600;7.558;2023-08-17T13:21:18;22.90;99.90
18948;DHT22;9607;51.600;7.558;2023-08-17T13:23:45;22.90;99.90
18948;DHT22;9607;51.600;7.558;2023-08-17T13:26:12;23.00;99.90
18948;DHT22;9607;51.600;7.558;2023-08-17T13:28:40;23.00;99.90
18948;DHT22;9607;51.600;7.558;2023-08-17T13:31:07;23.00;99.90
18948;DHT22;9607;51.600;7.558;2023-08-17T13:33:34;23.10;99.90
18948;DHT22;9607;51.600;7.558;2023-08-17T13:36:00;23.20;99.90
18948;DHT22;9607;51.600;7.558;2023-08-17T13:38:28;23.10;99.90
18948;DHT22;9607;51.600;7.558;2023-08-17T13:40:55;23.10;99.90
18948;DHT22;9607;51.600;7.558;2023-08-17T13:43:21;23.10;99.90
18948;DHT22;9607;51.600;7.558;2023-08-17T13:45:50;23.20;99.90
18948;DHT22;9607;51.600;7.558;2023-08-17T13:48:25;23.20;99.90
18948;DHT22;9607;51.600;7.558;2023-08-17T13:50:52;23.20;99.90
18948;DHT22;9607;51.600;7.558;2023-08-17T13:53:25;23.10;99.90
18948;DHT22;9607;51.600;7.558;2023-08-17T13:55:52;23.10;99.90
18948;DHT22;9607;51.600;7.558;2023-08-17T13:58:19;23.10;99.90
18948;DHT22;9607;51.600;7.558;2023-08-17T14:00:46;23.00;99.90
18948;DHT22;9607;51.600;7.558;2023-08-17T14:03:14;23.10;99.90
18948;DHT22;9607;51.600;7.558;2023-08-17T14:05:42;23.10;99.90
18948;DHT22;9607;51.600;7.558;2023-08-17T14:08:10;23.10;99.90
18948;DHT22;9607;51.600;7.558;2023-08-17T14:10:37;23.20;99.90
18948;DHT22;9607;51.600;7.558;2023-08-17T14:13:04;23.10;99.90
18948;DHT22;9607;51.600;7.558;2023-08-17T14:15:30;23.00;99.90
18948;DHT22;9607;51.600;7.558;2023-08-17T14:17:57;23.00;99.90
18948;DHT22;9607;51.600;7.558;2023-08-17T14:20:25;22.90;99.90
18948;DHT22;9607;51.600;7.558;2023-08-17T14:22:52;22.80;99.90
18948;DHT22;9607;51.600;7.558;2023-08-17T14:25:19;22.70;99.90
18948;DHT22;9607;51.600;7.558;2023-08-17T14:27:45;22.60;99.90
18948;DHT22;9607;51.600;7.558;2023-08-17T14:30:13;22.50;99.90
18948;DHT22;9607;51.600;7.558;2023-08-17T14:32:39;22.40;99.90
18948;DHT22;9607;51.600;7.558;2023-08-17T14:35:07;22.40;99.90
18948;DHT22;9607;51.600;7.558;2023-08-17T14:37:35;22.40;99.90
18948;DHT22;9607;51.600;7.558;2023-08-17T14:40:02;22.30;99.90
18948;DHT22;9607;51.600;7.558;2023-08-17T14:42:29;22.40;99.90
18948;DHT22;9607;51.600;7.558;2023-08-17T14:44:56;22.40;99.90
18948;DHT22;9607;51.600;7.558;2023-08-17T14:47:22;22.40;99.90
18948;DHT22;9607;51.600;7.558;2023-08-17T14:49:48;22.40;99.90
18948;DHT22;9607;51.600;7.558;2023-08-17T14:52:15;22.40;99.90
18948;DHT22;9607;51.600;7.558;2023-08-17T14:54:43;22.30;99.90
18948;DHT22;9607;51.600;7.558;2023-08-17T14:57:10;22.30;99.90
18948;DHT22;9607;51.600;7.558;2023-08-17T14:59:37;22.20;99.90
18948;DHT22;9607;51.600;7.558;2023-08-17T15:02:03;22.10;99.90
18948;DHT22;9607;51.600;7.558;2023-08-17T15:04:30;22.00;99.90
18948;DHT22;9607;51.600;7.558;2023-08-17T15:06:58;21.90;99.90
18948;DHT22;9607;51.600;7.558;2023-08-17T15:09:24;21.80;99.90
18948;DHT22;9607;51.600;7.558;2023-08-17T15:11:53;21.70;99.90
18948;DHT22;9607;51.600;7.558;2023-08-17T15:14:20;21.60;99.90
18948;DHT22;9607;51.600;7.558;2023-08-17T15:16:47;21.60;99.90
18948;DHT22;9607;51.600;7.558;2023-08-17T15:19:14;21.50;99.90
18948;DHT22;9607;51.600;7.558;2023-08-17T15:21:40;21.50;99.90
18948;DHT22;9607;51.600;7.558;2023-08-17T15:24:07;21.40;99.90
18948;DHT22;9607;51.600;7.558;2023-08-17T15:26:34;21.30;99.90
18948;DHT22;9607;51.600;7.558;2023-08-17T15:29:02;21.30;99.90
18948;DHT22;9607;51.600;7.558;2023-08-17T15:31:29;21.20;99.90
18948;DHT22;9607;51.600;7.558;2023-08-17T15:33:56;21.20;99.90
18948;DHT22;9607;51.600;7.558;2023-08-17T15:36:22;21.10;99.90
18948;DHT22;9607;51.600;7.558;2023-08-17T15:38:51;21.10;99.90
18948;DHT22;9607;51.600;7.558;2023-08-17T15:41:18;21.10;99.90
18948;DHT22;9607;51.600;7.558;2023-08-17T15:43:45;21.20;99.90
18948;DHT22;9607;51.600;7.558;2023-08-17T15:46:13;21.20;99.90
18948;DHT22;9607;51.600;7.558;2023-08-17T15:48:40;21.20;99.90
18948;DHT22;9607;51.600;7.558;2023-08-17T15:51:07;21.20;99.90